Blodgett Mills, New York
Current Conditions -  °F | °C
As of 9:35 AM on Monday 26 Jan 2015 (Local Time) from KN03 Reporting Station
Light Snow Light Snow  
Wind Chill:   Ceiling: 3800
Heat Index: 12°   Visibility: 4mi
Dew Point:   Wind: 6mph
Humidity: 85%   Direction: 60°ENE
Pressure: 29.93"   Gusts: NA
Location:  42.57°N, 76.13°W
Report Text: KN03 261435Z AUTO 06005KT 4SM -SN OVC038 M11/M13 A2993 RMK AO2
Loading
Personal Weather Stations






























Interactive Weather Map New forecast layout! Learn more

10-Day Weather Forecast

Advertisements
Track Severe Weather on mobile